createdAt,value
2022-10-18T00:00:11.961Z,102146.25
2022-10-18T00:01:14.447Z,102147.31
2022-10-18T00:02:16.926Z,102142.06
2022-10-18T00:03:19.488Z,102148.13
2022-10-18T00:04:21.840Z,102148.72
2022-10-18T00:05:24.052Z,102142.94
2022-10-18T00:06:26.393Z,102148.69
2022-10-18T00:07:29.207Z,102146.56
2022-10-18T00:08:32.282Z,102138.69
2022-10-18T00:09:34.879Z,102148.97
2022-10-18T00:10:37.199Z,102146.84
2022-10-18T00:11:39.705Z,102145.53
2022-10-18T00:12:41.969Z,102134.22
2022-10-18T00:13:44.687Z,102147.66
2022-10-18T00:14:50.835Z,102144.75
2022-10-18T00:16:09.887Z,102145.06
2022-10-18T00:17:12.376Z,102145.88
2022-10-18T00:18:15.431Z,102142.44
2022-10-18T00:19:17.625Z,102141.41
2022-10-18T00:20:19.926Z,102140.41
2022-10-18T00:21:24.426Z,102143.63
2022-10-18T00:22:26.751Z,102141.28
2022-10-18T00:23:30.732Z,102144.38
2022-10-18T00:24:32.957Z,102136.47
2022-10-18T00:25:35.361Z,102135.16
2022-10-18T00:26:37.605Z,102138.31
2022-10-18T00:27:39.779Z,102139.91
2022-10-18T00:28:42.665Z,102134.34
2022-10-18T00:29:45.381Z,102132.00
2022-10-18T00:30:47.828Z,102131.44
2022-10-18T00:31:50.211Z,102127.25
2022-10-18T00:32:52.440Z,102132.84
2022-10-18T00:33:57.130Z,102129.72
2022-10-18T00:34:59.530Z,102127.63
2022-10-18T00:36:01.819Z,102125.19
2022-10-18T00:37:04.081Z,102127.31
2022-10-18T00:38:06.344Z,102125.50
2022-10-18T00:39:11.918Z,102132.31
2022-10-18T00:40:14.536Z,102126.00
2022-10-18T00:41:20.088Z,102123.88
2022-10-18T00:42:25.480Z,102125.50
2022-10-18T00:43:27.738Z,102126.78
2022-10-18T00:44:29.917Z,102125.75
2022-10-18T00:45:32.305Z,102116.53
2022-10-18T00:46:36.716Z,102118.63
2022-10-18T00:47:38.974Z,102121.81
2022-10-18T00:48:41.200Z,102112.34
2022-10-18T00:49:47.826Z,102111.84
2022-10-18T00:50:52.543Z,102106.06
2022-10-18T00:52:00.900Z,102114.47
2022-10-18T00:53:06.945Z,102111.06
2022-10-18T00:54:09.110Z,102110.97
2022-10-18T00:55:11.885Z,102108.09
2022-10-18T00:56:14.494Z,102108.63
2022-10-18T00:57:17.503Z,102113.31
2022-10-18T00:58:20.258Z,102110.69
2022-10-18T00:59:23.585Z,102112.56
2022-10-18T01:00:25.940Z,102107.56
2022-10-18T01:01:28.653Z,102108.13
2022-10-18T01:02:32.446Z,102109.72
2022-10-18T01:03:36.504Z,102108.69
2022-10-18T01:04:38.807Z,102106.56
2022-10-18T01:05:46.521Z,102106.81
2022-10-18T01:07:09.214Z,102101.81
2022-10-18T01:08:11.355Z,102107.63
2022-10-18T01:09:13.547Z,102111.31
2022-10-18T01:10:29.827Z,102105.03
2022-10-18T01:12:28.922Z,102101.13
2022-10-18T01:13:46.009Z,102105.84
2022-10-18T01:14:57.045Z,102100.34
2022-10-18T01:16:08.311Z,102098.47
2022-10-18T01:17:19.532Z,102105.84
2022-10-18T01:19:00.697Z,102098.22
2022-10-18T01:20:19.155Z,102101.38
2022-10-18T01:21:42.777Z,102098.22
2022-10-18T01:22:50.779Z,102098.50
2022-10-18T01:24:08.157Z,102092.97
2022-10-18T01:25:29.901Z,102094.00
2022-10-18T01:26:50.924Z,102091.91
2022-10-18T01:28:12.527Z,102086.91
2022-10-18T01:29:26.636Z,102089.28
2022-10-18T01:30:37.789Z,102085.59
2022-10-18T01:31:46.517Z,102086.63
2022-10-18T01:32:52.696Z,102078.19
2022-10-18T01:35:14.966Z,102076.63
2022-10-18T01:36:32.884Z,102074.50
2022-10-18T01:37:36.311Z,102078.72
2022-10-18T01:38:40.628Z,102083.47
2022-10-18T01:39:46.615Z,102073.00
2022-10-18T01:40:50.904Z,102073.47
2022-10-18T01:41:55.474Z,102078.72
2022-10-18T01:42:57.856Z,102077.16
2022-10-18T01:44:03.078Z,102079.78
2022-10-18T01:45:08.229Z,102074.53
2022-10-18T01:46:13.747Z,102080.59
2022-10-18T01:47:18.046Z,102079.06
2022-10-18T01:48:20.314Z,102076.69
2022-10-18T01:49:23.121Z,102074.81
2022-10-18T01:50:30.696Z,102079.31
2022-10-18T01:51:34.156Z,102070.44
2022-10-18T01:52:36.348Z,102073.59
2022-10-18T01:53:38.630Z,102068.00
2022-10-18T01:54:44.813Z,102077.22
2022-10-18T01:56:04.236Z,102070.38
2022-10-18T01:57:12.494Z,102067.75
2022-10-18T01:58:32.911Z,102066.94
2022-10-18T01:59:50.144Z,102070.91
2022-10-18T02:01:03.644Z,102059.97
2022-10-18T02:02:08.659Z,102062.00
2022-10-18T02:03:24.124Z,102062.81
2022-10-18T02:04:49.539Z,102053.91
2022-10-18T02:05:58.509Z,102054.66
2022-10-18T02:07:17.625Z,102053.06
2022-10-18T02:08:34.918Z,102054.09
2022-10-18T02:09:43.131Z,102048.66
2022-10-18T02:10:49.046Z,102050.97
2022-10-18T02:11:55.238Z,102054.63
2022-10-18T02:12:58.888Z,102051.72
2022-10-18T02:14:07.306Z,102049.63
2022-10-18T02:15:12.298Z,102058.28
2022-10-18T02:16:20.139Z,102048.81
2022-10-18T02:17:28.235Z,102047.72
2022-10-18T02:18:37.191Z,102051.94
2022-10-18T02:19:46.469Z,102048.78
2022-10-18T02:20:49.638Z,102064.59
2022-10-18T02:21:54.076Z,102049.06
2022-10-18T02:22:59.222Z,102042.47
2022-10-18T02:24:02.971Z,102056.94
2022-10-18T02:25:10.538Z,102044.31
2022-10-18T02:26:14.438Z,102054.06
2022-10-18T02:27:17.263Z,102055.66
2022-10-18T02:28:20.422Z,102053.53
2022-10-18T02:29:23.237Z,102052.00
2022-10-18T02:30:34.423Z,102048.56
2022-10-18T02:31:43.795Z,102049.66
2022-10-18T02:32:55.797Z,102045.72
2022-10-18T02:34:04.941Z,102051.50
2022-10-18T02:35:34.533Z,102044.91
2022-10-18T02:36:46.973Z,102040.69
2022-10-18T02:37:51.000Z,102042.81
2022-10-18T02:38:57.097Z,102042.00
2022-10-18T02:39:59.562Z,102044.91
2022-10-18T02:41:01.971Z,102050.16
2022-10-18T02:42:09.589Z,102037.28
2022-10-18T02:43:11.829Z,102042.06
2022-10-18T02:44:13.962Z,102041.03
2022-10-18T02:45:17.285Z,102043.63
2022-10-18T02:46:20.854Z,102040.75
2022-10-18T02:47:23.053Z,102048.09
2022-10-18T02:48:25.568Z,102044.38
2022-10-18T02:49:28.284Z,102044.66
2022-10-18T02:50:30.619Z,102048.66
2022-10-18T02:51:33.190Z,102041.81
2022-10-18T02:52:35.471Z,102050.72
2022-10-18T02:53:37.949Z,102048.13
2022-10-18T02:54:40.261Z,102048.66
2022-10-18T02:55:42.580Z,102046.53
2022-10-18T02:56:44.797Z,102053.09
2022-10-18T02:57:46.974Z,102056.81
2022-10-18T02:58:49.320Z,102046.81
2022-10-18T02:59:51.584Z,102049.72
2022-10-18T03:00:53.867Z,102046.03
2022-10-18T03:01:56.184Z,102048.91
2022-10-18T03:02:58.461Z,102047.06
2022-10-18T03:04:00.658Z,102048.34
2022-10-18T03:05:03.190Z,102050.75
2022-10-18T03:06:05.743Z,102048.13
2022-10-18T03:07:08.140Z,102046.56
2022-10-18T03:08:10.413Z,102048.94
2022-10-18T03:09:12.728Z,102050.03
2022-10-18T03:10:15.220Z,102044.50
2022-10-18T03:11:17.390Z,102050.81
2022-10-18T03:12:19.736Z,102047.47
2022-10-18T03:13:22.367Z,102041.41
2022-10-18T03:14:24.704Z,102050.34
2022-10-18T03:15:27.012Z,102045.56
2022-10-18T03:16:29.248Z,102051.09
2022-10-18T03:17:31.622Z,102039.50
2022-10-18T03:18:34.176Z,102046.88
2022-10-18T03:19:36.395Z,102038.72
2022-10-18T03:20:38.600Z,102043.72
2022-10-18T03:21:40.763Z,102039.72
2022-10-18T03:22:42.950Z,102038.91
2022-10-18T03:23:45.306Z,102040.00
2022-10-18T03:24:47.563Z,102037.38
2022-10-18T03:25:49.895Z,102032.38
2022-10-18T03:26:52.168Z,102033.13
2022-10-18T03:27:54.404Z,102040.53
2022-10-18T03:28:57.544Z,102039.72
2022-10-18T03:30:01.131Z,102032.06
2022-10-18T03:31:04.962Z,102039.44
2022-10-18T03:32:07.576Z,102039.19
2022-10-18T03:33:09.885Z,102035.50
2022-10-18T03:34:12.139Z,102028.13
2022-10-18T03:35:14.430Z,102034.19
2022-10-18T03:36:16.845Z,102031.81
2022-10-18T03:37:19.133Z,102031.03
2022-10-18T03:38:21.366Z,102039.97
2022-10-18T03:39:23.649Z,102032.06
2022-10-18T03:40:25.973Z,102030.75
2022-10-18T03:41:29.049Z,102026.84
2022-10-18T03:42:31.621Z,102034.75
2022-10-18T03:43:34.138Z,102030.56
2022-10-18T03:44:36.344Z,102028.97
2022-10-18T03:45:39.723Z,102029.25
2022-10-18T03:46:41.928Z,102034.00
2022-10-18T03:47:44.330Z,102035.03
2022-10-18T03:48:46.559Z,102030.06
2022-10-18T03:49:51.954Z,102034.81
2022-10-18T03:50:57.049Z,102029.06
2022-10-18T03:51:59.223Z,102029.81
2022-10-18T03:53:01.505Z,102033.72
2022-10-18T03:54:04.002Z,102035.88
2022-10-18T03:55:06.857Z,102034.31
2022-10-18T03:56:09.056Z,102028.25
2022-10-18T03:57:11.237Z,102029.81
2022-10-18T03:58:13.487Z,102026.94
2022-10-18T03:59:17.282Z,102031.16
2022-10-18T04:00:19.856Z,102033.31
2022-10-18T04:01:22.217Z,102027.72
2022-10-18T04:02:26.227Z,102026.75
2022-10-18T04:03:28.603Z,102030.94
2022-10-18T04:04:31.017Z,102029.63
2022-10-18T04:05:34.601Z,102032.78
2022-10-18T04:06:37.019Z,102030.94
2022-10-18T04:07:39.270Z,102021.75
2022-10-18T04:08:43.673Z,102028.59
2022-10-18T04:09:45.874Z,102023.88
2022-10-18T04:10:48.514Z,102027.53
2022-10-18T04:11:51.771Z,102032.00
2022-10-18T04:12:54.002Z,102026.47
2022-10-18T04:13:56.309Z,102029.91
2022-10-18T04:14:58.467Z,102028.59
2022-10-18T04:16:00.754Z,102024.13
2022-10-18T04:17:04.950Z,102030.16
2022-10-18T04:18:10.042Z,102029.38
2022-10-18T04:19:12.332Z,102027.81
2022-10-18T04:20:14.806Z,102034.91
2022-10-18T04:21:17.125Z,102031.78
2022-10-18T04:22:19.402Z,102032.03
2022-10-18T04:23:21.804Z,102032.81
2022-10-18T04:24:24.353Z,102031.00
2022-10-18T04:25:26.689Z,102037.56
2022-10-18T04:26:29.073Z,102033.66
2022-10-18T04:27:31.572Z,102035.75
2022-10-18T04:28:35.696Z,102028.63
2022-10-18T04:29:38.042Z,102037.03
2022-10-18T04:30:40.247Z,102027.84
2022-10-18T04:31:42.900Z,102029.72
2022-10-18T04:32:45.138Z,102034.19
2022-10-18T04:33:47.391Z,102029.19
2022-10-18T04:34:49.680Z,102028.13
2022-10-18T04:35:53.707Z,102027.63
2022-10-18T04:36:55.976Z,102030.25
2022-10-18T04:37:58.158Z,102026.56
2022-10-18T04:39:00.737Z,102026.56
2022-10-18T04:40:04.386Z,102022.84
2022-10-18T04:41:06.673Z,102023.38
2022-10-18T04:42:08.862Z,102016.84
2022-10-18T04:43:11.171Z,102016.84
2022-10-18T04:44:13.506Z,102026.28
2022-10-18T04:45:16.066Z,102020.78
2022-10-18T04:46:18.395Z,102027.88
2022-10-18T04:47:20.767Z,102025.03
2022-10-18T04:48:23.103Z,102023.44
2022-10-18T04:49:25.582Z,102016.06
2022-10-18T04:50:28.051Z,102018.16
2022-10-18T04:51:32.389Z,102021.31
2022-10-18T04:52:34.788Z,102021.59
2022-10-18T04:53:37.042Z,102017.91
2022-10-18T04:54:39.202Z,102011.56
2022-10-18T04:55:48.028Z,102016.88
2022-10-18T04:56:50.255Z,102015.84
2022-10-18T04:57:53.187Z,102016.34
2022-10-18T04:58:55.598Z,102013.47
2022-10-18T04:59:58.468Z,102010.31
2022-10-18T05:01:00.826Z,102016.88
2022-10-18T05:03:13.054Z,102013.47
2022-10-18T05:04:15.460Z,102012.66
2022-10-18T05:05:17.802Z,102019.78
2022-10-18T05:06:21.228Z,102012.41
2022-10-18T05:07:23.430Z,102010.03
2022-10-18T05:08:28.371Z,102019.25
2022-10-18T05:09:30.500Z,102011.91
2022-10-18T05:10:32.911Z,102019.47
2022-10-18T05:11:35.208Z,102017.38
2022-10-18T05:12:37.477Z,102018.94
2022-10-18T05:13:39.833Z,102017.91
2022-10-18T05:14:42.219Z,102012.13
2022-10-18T05:15:47.439Z,102016.56
2022-10-18T05:16:49.799Z,102015.53
2022-10-18T05:17:52.003Z,102015.53
2022-10-18T05:18:55.136Z,102010.28
2022-10-18T05:19:58.513Z,102013.94
2022-10-18T05:21:19.466Z,102005.28
2022-10-18T05:22:22.811Z,102005.00
2022-10-18T05:23:25.467Z,102009.75
2022-10-18T05:24:27.996Z,102003.69
2022-10-18T05:25:30.539Z,102009.75
2022-10-18T05:26:32.976Z,102001.34
2022-10-18T05:27:35.419Z,102013.94
2022-10-18T05:28:40.388Z,102010.78
2022-10-18T05:29:43.235Z,102012.84
2022-10-18T05:30:45.472Z,102007.59
2022-10-18T05:31:53.531Z,102017.31
2022-10-18T05:32:55.831Z,102008.06
2022-10-18T05:33:58.118Z,102012.75
2022-10-18T05:35:00.326Z,102017.66
2022-10-18T05:36:02.617Z,102019.94
2022-10-18T05:37:05.289Z,102015.28
2022-10-18T05:38:08.012Z,102019.31
2022-10-18T05:39:10.250Z,102014.66
2022-10-18T05:40:12.688Z,102017.00
2022-10-18T05:41:15.311Z,102013.34
2022-10-18T05:42:17.647Z,102021.06
2022-10-18T05:43:19.942Z,102018.00
2022-10-18T05:44:22.432Z,102014.84
2022-10-18T05:45:24.875Z,102018.84
2022-10-18T05:46:27.136Z,102018.88
2022-10-18T05:47:29.549Z,102010.75
2022-10-18T05:48:32.525Z,102014.41
2022-10-18T05:49:34.837Z,102017.16
2022-10-18T05:50:39.599Z,102016.03
2022-10-18T05:51:43.440Z,102009.28
2022-10-18T05:52:45.792Z,102010.31
2022-10-18T05:53:48.291Z,102017.88
2022-10-18T05:54:50.615Z,102022.16
2022-10-18T05:55:52.904Z,102016.75
2022-10-18T05:57:04.339Z,102015.50
2022-10-18T05:58:06.988Z,102020.09
2022-10-18T05:59:12.629Z,102015.22
2022-10-18T06:00:15.489Z,102014.41
2022-10-18T06:01:18.749Z,102026.94
2022-10-18T06:02:21.118Z,102024.09
2022-10-18T06:03:23.380Z,102014.91
2022-10-18T06:04:26.054Z,102021.50
2022-10-18T06:05:28.970Z,102021.50
2022-10-18T06:06:32.682Z,102021.38
2022-10-18T06:07:36.033Z,102022.22
2022-10-18T06:08:39.608Z,102021.59
2022-10-18T06:09:42.547Z,102021.41
2022-10-18T06:10:44.856Z,102019.38
2022-10-18T06:11:47.187Z,102017.81
2022-10-18T06:12:49.398Z,102018.56
2022-10-18T06:13:52.723Z,102023.50
2022-10-18T06:14:54.995Z,102020.94
2022-10-18T06:16:00.275Z,102028.72
2022-10-18T06:17:02.645Z,102018.91
2022-10-18T06:18:04.961Z,102026.19
2022-10-18T06:19:07.401Z,102022.66
2022-10-18T06:20:09.994Z,102024.50
2022-10-18T06:21:12.226Z,102025.00
2022-10-18T06:22:14.498Z,102019.75
2022-10-18T06:23:16.872Z,102024.41
2022-10-18T06:24:37.747Z,102028.28
2022-10-18T06:25:40.117Z,102022.19
2022-10-18T06:26:42.367Z,102017.72
2022-10-18T06:27:44.681Z,102027.94
2022-10-18T06:28:47.151Z,102019.47
2022-10-18T06:29:49.430Z,102023.13
2022-10-18T06:30:51.635Z,102021.94
2022-10-18T06:31:53.896Z,102023.41
2022-10-18T06:33:01.568Z,102024.06
2022-10-18T06:34:04.598Z,102021.00
2022-10-18T06:35:07.315Z,102030.06
2022-10-18T06:36:15.572Z,102028.53
2022-10-18T06:37:17.951Z,102026.66
2022-10-18T06:38:20.129Z,102025.66
2022-10-18T06:39:22.483Z,102034.31
2022-10-18T06:40:24.691Z,102030.09
2022-10-18T06:41:27.036Z,102028.50
2022-10-18T06:42:29.130Z,102028.72
2022-10-18T06:43:31.338Z,102026.00
2022-10-18T06:44:33.432Z,102027.56
2022-10-18T06:45:35.697Z,102022.97
2022-10-18T06:46:37.848Z,102024.31
2022-10-18T06:47:39.990Z,102026.13
2022-10-18T06:48:42.231Z,102028.31
2022-10-18T06:49:44.375Z,102024.28
2022-10-18T06:51:00.742Z,102025.91
2022-10-18T06:52:02.973Z,102028.88
2022-10-18T06:53:06.505Z,102024.41
2022-10-18T06:54:19.308Z,102025.25
2022-10-18T06:55:21.627Z,102034.81
2022-10-18T06:56:23.831Z,102031.97
2022-10-18T06:57:26.162Z,102032.59
2022-10-18T06:58:34.480Z,102030.56
2022-10-18T06:59:36.873Z,102035.41
2022-10-18T07:00:39.677Z,102028.78
2022-10-18T07:01:42.036Z,102039.38
2022-10-18T07:02:44.348Z,102035.28
2022-10-18T07:03:48.107Z,102035.63
2022-10-18T07:04:50.369Z,102033.47
2022-10-18T07:05:52.642Z,102028.50
2022-10-18T07:06:55.129Z,102026.66
2022-10-18T07:07:57.720Z,102025.06
2022-10-18T07:09:00.395Z,102029.28
2022-10-18T07:10:02.632Z,102029.56
2022-10-18T07:11:06.639Z,102025.91
2022-10-18T07:12:08.894Z,102026.63
2022-10-18T07:13:31.426Z,102035.69
2022-10-18T07:14:34.012Z,102024.94
2022-10-18T07:15:38.787Z,102029.16
2022-10-18T07:16:41.129Z,102027.28
2022-10-18T07:17:45.804Z,102026.69
2022-10-18T07:18:51.508Z,102023.34
2022-10-18T07:19:53.752Z,102032.34
2022-10-18T07:20:56.206Z,102030.38
2022-10-18T07:21:58.427Z,102028.38
2022-10-18T07:23:00.669Z,102027.00
2022-10-18T07:24:02.981Z,102028.34
2022-10-18T07:25:06.349Z,102028.06
2022-10-18T07:26:33.986Z,102023.38
2022-10-18T07:27:41.723Z,102022.97
2022-10-18T07:28:48.307Z,102018.88
2022-10-18T07:29:50.924Z,102018.59
2022-10-18T07:30:53.131Z,102025.13
2022-10-18T07:31:55.597Z,102018.72
2022-10-18T07:32:57.845Z,102021.50
2022-10-18T07:34:00.186Z,102019.91
2022-10-18T07:35:03.220Z,102025.56
2022-10-18T07:36:07.848Z,102024.06
2022-10-18T07:37:10.329Z,102027.03
2022-10-18T07:38:12.891Z,102033.91
2022-10-18T07:39:15.436Z,102024.97
2022-10-18T07:40:17.829Z,102021.88
2022-10-18T07:41:20.965Z,102025.81
2022-10-18T07:42:23.603Z,102027.50
2022-10-18T07:43:26.340Z,102022.38
2022-10-18T07:44:28.615Z,102027.16
2022-10-18T07:45:32.340Z,102027.41
2022-10-18T07:46:35.021Z,102020.72
2022-10-18T07:47:37.744Z,102021.38
2022-10-18T07:48:40.852Z,102024.94
2022-10-18T07:49:43.436Z,102014.38
2022-10-18T07:50:45.692Z,102025.00
2022-10-18T07:51:48.086Z,102021.63
2022-10-18T07:52:50.701Z,102014.28
2022-10-18T07:53:52.985Z,102016.03
2022-10-18T07:54:55.209Z,102007.19
2022-10-18T07:56:21.387Z,102015.84
2022-10-18T07:57:24.703Z,102007.78
2022-10-18T07:58:27.272Z,102011.03
2022-10-18T07:59:29.841Z,102000.34
2022-10-18T08:00:32.088Z,102009.13
2022-10-18T08:01:34.621Z,102001.28
2022-10-18T08:02:37.076Z,102004.66
2022-10-18T08:03:39.591Z,102008.56
2022-10-18T08:04:41.887Z,102005.47
2022-10-18T08:05:44.220Z,102011.19
2022-10-18T08:06:46.623Z,102002.06
2022-10-18T08:07:48.990Z,102003.41
2022-10-18T08:08:51.415Z,101999.25
2022-10-18T08:09:53.637Z,101997.34
2022-10-18T08:10:56.319Z,101998.28
2022-10-18T08:11:58.655Z,102000.28
2022-10-18T08:13:00.921Z,101997.19
2022-10-18T08:14:03.162Z,101996.78
2022-10-18T08:15:05.969Z,102000.78
2022-10-18T08:16:18.068Z,101997.09
2022-10-18T08:17:20.343Z,101995.41
2022-10-18T08:18:27.405Z,101991.81
2022-10-18T08:19:29.772Z,101996.66
2022-10-18T08:20:33.443Z,101995.53
2022-10-18T08:21:35.715Z,101989.81
2022-10-18T08:22:38.031Z,101993.91
2022-10-18T08:23:41.006Z,101989.72
2022-10-18T08:24:43.308Z,101991.22
2022-10-18T08:25:45.577Z,101990.97
2022-10-18T08:26:49.576Z,101984.50
2022-10-18T08:27:51.829Z,101990.03
2022-10-18T08:29:10.211Z,101986.91
2022-10-18T08:30:17.866Z,101988.19
2022-10-18T08:31:20.397Z,101992.63
2022-10-18T08:32:22.587Z,101984.59
2022-10-18T08:33:24.819Z,101986.81
2022-10-18T08:34:27.217Z,101985.69
2022-10-18T08:35:29.574Z,101989.34
2022-10-18T08:36:31.849Z,101993.13
2022-10-18T08:37:34.877Z,101985.34
2022-10-18T08:38:40.251Z,101987.16
2022-10-18T08:39:42.647Z,101985.97
2022-10-18T08:40:44.918Z,101985.97
2022-10-18T08:41:53.007Z,101981.06
2022-10-18T08:43:01.376Z,101978.50
2022-10-18T08:44:16.078Z,101989.09
2022-10-18T08:45:37.406Z,101983.81
2022-10-18T08:46:46.032Z,101965.56
2022-10-18T08:47:52.115Z,101975.31
2022-10-18T08:48:57.237Z,101972.25
2022-10-18T08:50:13.643Z,101970.50
2022-10-18T08:51:26.471Z,101964.59
2022-10-18T08:53:54.660Z,101968.22
2022-10-18T08:55:18.827Z,101966.25
2022-10-18T08:56:24.360Z,101960.72
2022-10-18T08:57:26.757Z,101960.31
2022-10-18T08:58:32.324Z,101957.41
2022-10-18T08:59:39.740Z,101960.09
2022-10-18T09:01:11.821Z,101953.66
2022-10-18T09:02:33.533Z,101955.69
2022-10-18T09:03:44.748Z,101955.97
2022-10-18T09:04:50.303Z,101953.31
2022-10-18T09:05:56.616Z,101956.84
2022-10-18T09:07:17.581Z,101950.91
2022-10-18T09:08:22.816Z,101956.94
2022-10-18T09:09:28.089Z,101955.50
2022-10-18T09:10:34.128Z,101954.16
2022-10-18T09:11:39.452Z,101953.16
2022-10-18T09:12:42.937Z,101956.03
2022-10-18T09:14:03.366Z,101948.97
2022-10-18T09:15:14.954Z,101952.72
2022-10-18T09:16:36.291Z,101948.75
2022-10-18T09:17:53.321Z,101949.72
2022-10-18T09:19:43.005Z,101946.44
2022-10-18T09:20:57.973Z,101952.38
2022-10-18T09:22:16.849Z,101951.38
2022-10-18T09:23:29.448Z,101946.56
2022-10-18T09:24:58.944Z,101947.44
2022-10-18T09:26:14.258Z,101948.84
2022-10-18T09:27:19.799Z,101946.88
2022-10-18T09:28:52.041Z,101951.13
2022-10-18T09:30:00.326Z,101950.69
2022-10-18T09:31:10.592Z,101940.25
2022-10-18T09:32:25.649Z,101948.69
2022-10-18T09:33:45.380Z,101943.03
2022-10-18T09:34:55.735Z,101945.22
2022-10-18T09:36:01.501Z,101940.19
2022-10-18T09:37:11.505Z,101944.69
2022-10-18T09:38:18.685Z,101936.94
2022-10-18T09:39:26.693Z,101942.66
2022-10-18T09:40:32.677Z,101931.56
2022-10-18T09:41:37.967Z,101938.50
2022-10-18T09:42:47.923Z,101932.41
2022-10-18T09:43:56.325Z,101927.75
2022-10-18T09:45:40.102Z,101925.41
2022-10-18T09:46:49.368Z,101928.75
2022-10-18T09:48:33.334Z,101918.81
2022-10-18T09:49:45.783Z,101913.91
2022-10-18T09:51:00.801Z,101923.78
2022-10-18T09:52:08.681Z,101916.41
2022-10-18T09:53:12.384Z,101917.78
2022-10-18T09:54:17.705Z,101918.03
2022-10-18T09:55:25.756Z,101918.69
2022-10-18T09:56:39.420Z,101913.72
2022-10-18T09:57:50.354Z,101914.63
2022-10-18T09:58:52.684Z,101912.34
2022-10-18T09:59:54.961Z,101912.34
2022-10-18T10:00:57.983Z,101908.06
2022-10-18T10:02:00.630Z,101912.69
2022-10-18T10:03:11.312Z,101909.28
2022-10-18T10:04:14.588Z,101905.81
2022-10-18T10:05:16.784Z,101905.81
2022-10-18T10:06:25.464Z,101903.06
2022-10-18T10:07:35.268Z,101904.28
2022-10-18T10:08:42.549Z,101904.94
2022-10-18T10:10:06.813Z,101895.28
2022-10-18T10:11:38.702Z,101902.63
2022-10-18T10:12:41.363Z,101899.22
2022-10-18T10:13:43.597Z,101902.72
2022-10-18T10:14:45.848Z,101903.88
2022-10-18T10:15:55.165Z,101905.06
2022-10-18T10:17:05.959Z,101895.75
2022-10-18T10:18:21.900Z,101898.50
2022-10-18T10:19:29.558Z,101899.13
2022-10-18T10:20:35.345Z,101896.53
2022-10-18T10:21:40.789Z,101894.94
2022-10-18T10:22:46.861Z,101890.38
2022-10-18T10:23:53.894Z,101889.09
2022-10-18T10:24:56.429Z,101886.06
2022-10-18T10:26:06.771Z,101880.16
2022-10-18T10:27:18.168Z,101878.75
2022-10-18T10:28:26.733Z,101876.66
2022-10-18T10:29:47.192Z,101874.91
2022-10-18T10:30:49.843Z,101857.91
2022-10-18T10:32:04.777Z,101864.66
2022-10-18T10:33:39.344Z,101865.94
2022-10-18T10:34:44.646Z,101862.94
2022-10-18T10:35:58.851Z,101860.72
2022-10-18T10:37:02.815Z,101856.63
2022-10-18T10:38:06.110Z,101853.28
2022-10-18T10:39:18.884Z,101854.91
2022-10-18T10:40:28.582Z,101857.66
2022-10-18T10:42:38.767Z,101842.44
2022-10-18T10:43:45.232Z,101844.41
2022-10-18T10:44:55.282Z,101838.09
2022-10-18T10:45:59.946Z,101839.84
2022-10-18T10:47:02.948Z,101838.00
2022-10-18T10:48:15.328Z,101832.16
2022-10-18T10:49:40.700Z,101837.88
2022-10-18T10:51:14.692Z,101825.06
2022-10-18T10:52:27.355Z,101823.59
2022-10-18T10:53:57.320Z,101819.41
2022-10-18T10:55:06.181Z,101818.28
2022-10-18T10:56:25.616Z,101822.81
2022-10-18T10:57:29.176Z,101818.75
2022-10-18T10:58:35.836Z,101810.28
2022-10-18T10:59:48.170Z,101811.16
2022-10-18T11:00:50.368Z,101811.25
2022-10-18T11:02:14.313Z,101810.22
2022-10-18T11:03:30.077Z,101806.94
2022-10-18T11:04:32.763Z,101801.50
2022-10-18T11:05:44.314Z,101796.44
2022-10-18T11:06:52.400Z,101797.09
2022-10-18T11:08:02.494Z,101797.19
2022-10-18T11:09:15.879Z,101791.34
2022-10-18T11:10:21.947Z,101798.88
2022-10-18T11:11:31.661Z,101792.38
2022-10-18T11:12:39.488Z,101793.25
2022-10-18T11:14:07.390Z,101783.31
2022-10-18T11:15:18.510Z,101788.28
2022-10-18T11:16:39.437Z,101782.09
2022-10-18T11:19:11.496Z,101792.19
2022-10-18T11:20:19.743Z,101783.78
2022-10-18T11:21:32.563Z,101771.09
2022-10-18T11:22:41.845Z,101784.41
2022-10-18T11:23:45.432Z,101773.91
2022-10-18T11:24:48.559Z,101773.97
2022-10-18T11:26:11.931Z,101772.38
2022-10-18T11:27:28.518Z,101768.13
2022-10-18T11:28:37.155Z,101769.94
2022-10-18T11:29:54.395Z,101766.56
2022-10-18T11:31:19.167Z,101770.91
2022-10-18T11:32:21.426Z,101766.81
2022-10-18T11:33:56.276Z,101762.31
2022-10-18T11:34:56.064Z,101756.19
2022-10-18T11:36:06.854Z,101756.22
2022-10-18T11:37:32.179Z,101749.78
2022-10-18T11:39:03.323Z,101756.63
2022-10-18T11:40:33.758Z,101749.94
2022-10-18T11:41:49.824Z,101749.88
2022-10-18T11:43:17.098Z,101742.88
2022-10-18T11:44:33.047Z,101748.78
2022-10-18T11:46:28.010Z,101740.38
2022-10-18T11:47:55.052Z,101742.00
2022-10-18T11:49:18.542Z,101747.00
2022-10-18T11:50:41.078Z,101736.00
2022-10-18T11:52:13.840Z,101723.53
2022-10-18T11:53:34.004Z,101732.09
2022-10-18T11:54:43.625Z,101723.81
2022-10-18T11:55:45.740Z,101724.88
2022-10-18T11:56:56.353Z,101720.78
2022-10-18T11:58:11.799Z,101711.69
2022-10-18T11:59:26.110Z,101711.06
2022-10-18T12:00:40.584Z,101704.19
2022-10-18T12:02:15.348Z,101710.03
2022-10-18T12:03:40.145Z,101698.84
2022-10-18T12:04:58.397Z,101696.31
2022-10-18T12:06:21.590Z,101695.56
2022-10-18T12:07:32.346Z,101696.50
2022-10-18T12:08:40.278Z,101696.78
2022-10-18T12:09:46.323Z,101692.88
2022-10-18T12:11:04.457Z,101692.22
2022-10-18T12:12:18.054Z,101696.66
2022-10-18T12:13:41.704Z,101689.97
2022-10-18T12:15:03.127Z,101688.22
2022-10-18T12:16:08.134Z,101687.88
2022-10-18T12:17:41.800Z,101688.66
2022-10-18T12:18:56.413Z,101685.63
2022-10-18T12:20:04.768Z,101678.63
2022-10-18T12:21:11.160Z,101679.63
2022-10-18T12:22:28.711Z,101679.78
2022-10-18T12:23:43.067Z,101681.84
2022-10-18T12:24:45.278Z,101682.97
2022-10-18T12:25:52.969Z,101677.44
2022-10-18T12:27:00.735Z,101675.03
2022-10-18T12:28:21.705Z,101677.00
2022-10-18T12:29:34.835Z,101672.56
2022-10-18T12:30:43.020Z,101668.75
2022-10-18T12:31:54.803Z,101666.97
2022-10-18T12:33:28.156Z,101662.34
2022-10-18T12:34:36.316Z,101664.25
2022-10-18T12:36:22.813Z,101663.44
2022-10-18T12:37:26.643Z,101654.41
2022-10-18T12:38:33.611Z,101659.34
2022-10-18T12:40:08.680Z,101655.94
2022-10-18T12:41:19.597Z,101648.63
2022-10-18T12:42:24.300Z,101655.81
2022-10-18T12:43:36.704Z,101651.16
2022-10-18T12:44:39.112Z,101645.00
2022-10-18T12:45:54.989Z,101648.97
2022-10-18T12:47:03.264Z,101653.03
2022-10-18T12:48:08.051Z,101641.72
2022-10-18T12:49:12.979Z,101648.06
2022-10-18T12:50:37.722Z,101646.03
2022-10-18T12:52:04.835Z,101641.09